createdAt,value
2019-05-26T00:02:00.702Z,11.90
2019-05-26T00:04:28.712Z,11.90
2019-05-26T00:06:56.500Z,11.90
2019-05-26T00:09:24.340Z,11.80
2019-05-26T00:11:52.065Z,11.80
2019-05-26T00:14:19.913Z,11.70
2019-05-26T00:16:47.628Z,11.70
2019-05-26T00:19:15.430Z,11.60
2019-05-26T00:21:43.254Z,11.60
2019-05-26T00:24:10.992Z,11.60
2019-05-26T00:26:38.795Z,11.50
2019-05-26T00:29:06.566Z,11.40
2019-05-26T00:31:34.358Z,11.40
2019-05-26T00:34:02.189Z,11.30
2019-05-26T00:36:30.012Z,11.30
2019-05-26T00:39:00.283Z,11.30
2019-05-26T00:41:27.491Z,11.20
2019-05-26T00:43:55.309Z,11.10
2019-05-26T00:46:23.142Z,10.90
2019-05-26T00:48:50.984Z,10.80
2019-05-26T00:51:18.797Z,10.80
2019-05-26T00:53:46.821Z,10.80
2019-05-26T00:56:14.681Z,10.80
2019-05-26T00:58:42.421Z,10.80
2019-05-26T01:01:10.322Z,10.80
2019-05-26T01:03:38.117Z,10.80
2019-05-26T01:06:05.892Z,10.80
2019-05-26T01:08:33.618Z,10.80
2019-05-26T01:11:01.700Z,10.70
2019-05-26T01:13:29.598Z,10.70
2019-05-26T01:15:57.400Z,10.70
2019-05-26T01:18:25.171Z,10.70
2019-05-26T01:20:52.967Z,10.70
2019-05-26T01:23:20.961Z,10.80
2019-05-26T01:25:48.722Z,10.80
2019-05-26T01:28:16.451Z,10.80
2019-05-26T01:30:44.777Z,10.80
2019-05-26T01:33:17.753Z,10.70
2019-05-26T01:35:45.698Z,10.70
2019-05-26T01:38:23.881Z,10.70
2019-05-26T01:40:44.807Z,10.70
2019-05-26T01:43:13.182Z,10.70
2019-05-26T01:45:40.992Z,10.60
2019-05-26T01:48:08.981Z,10.60
2019-05-26T01:50:36.740Z,10.50
2019-05-26T01:53:06.125Z,10.50
2019-05-26T01:55:34.015Z,10.50
2019-05-26T01:58:01.812Z,10.60
2019-05-26T02:00:31.959Z,10.50
2019-05-26T02:02:59.891Z,10.60
2019-05-26T02:05:27.702Z,10.70
2019-05-26T02:07:55.559Z,10.80
2019-05-26T02:10:23.661Z,10.80
2019-05-26T02:12:51.482Z,10.90
2019-05-26T02:15:20.088Z,10.90
2019-05-26T02:17:47.863Z,10.90
2019-05-26T02:20:15.831Z,11.00
2019-05-26T02:22:43.649Z,11.00
2019-05-26T02:25:11.585Z,11.00
2019-05-26T02:27:39.307Z,11.10
2019-05-26T02:30:07.721Z,11.10
2019-05-26T02:32:35.476Z,11.10
2019-05-26T02:35:04.263Z,11.10
2019-05-26T02:37:32.009Z,11.10
2019-05-26T02:39:59.759Z,11.10
2019-05-26T02:42:27.578Z,11.20
2019-05-26T02:44:59.288Z,11.10
2019-05-26T02:47:26.413Z,11.00
2019-05-26T02:49:54.283Z,11.00
2019-05-26T02:52:22.020Z,11.10
2019-05-26T02:54:49.816Z,11.00
2019-05-26T02:57:17.608Z,11.00
2019-05-26T02:59:45.339Z,11.00
2019-05-26T03:02:13.244Z,11.00
2019-05-26T03:04:46.406Z,10.90
2019-05-26T03:07:15.529Z,10.90
2019-05-26T03:09:44.108Z,10.80
2019-05-26T03:12:11.885Z,10.80
2019-05-26T03:14:43.465Z,10.60
2019-05-26T03:17:11.300Z,10.60
2019-05-26T03:19:41.377Z,10.50
2019-05-26T03:22:09.398Z,10.50
2019-05-26T03:24:40.900Z,10.50
2019-05-26T03:27:08.662Z,10.40
2019-05-26T03:29:36.566Z,10.40
2019-05-26T03:32:04.466Z,10.30
2019-05-26T03:34:32.223Z,10.30
2019-05-26T03:36:59.992Z,10.30
2019-05-26T03:39:43.290Z,10.30
2019-05-26T03:41:57.699Z,10.30
2019-05-26T03:44:25.515Z,10.30
2019-05-26T03:46:53.231Z,10.30
2019-05-26T03:49:21.186Z,10.20
2019-05-26T03:51:48.996Z,10.30
2019-05-26T03:54:16.915Z,10.20
2019-05-26T03:56:44.712Z,10.20
2019-05-26T03:59:12.551Z,10.20
2019-05-26T04:01:40.400Z,10.30
2019-05-26T04:04:08.303Z,10.30
2019-05-26T04:06:36.061Z,10.30
2019-05-26T04:09:06.552Z,10.20
2019-05-26T04:11:34.292Z,10.20
2019-05-26T04:14:02.155Z,10.30
2019-05-26T04:16:29.935Z,10.40
2019-05-26T04:18:58.966Z,10.50
2019-05-26T04:21:26.703Z,10.50
2019-05-26T04:23:54.666Z,10.50
2019-05-26T04:26:22.424Z,10.50
2019-05-26T04:28:50.236Z,10.60
2019-05-26T04:31:18.202Z,10.70
2019-05-26T04:33:46.008Z,10.70
2019-05-26T04:36:13.809Z,10.80
2019-05-26T04:38:41.659Z,10.90
2019-05-26T04:41:09.395Z,11.60
2019-05-26T04:43:37.281Z,11.10
2019-05-26T04:46:05.020Z,11.10
2019-05-26T04:48:32.821Z,11.20
2019-05-26T04:51:00.593Z,11.30
2019-05-26T04:53:28.360Z,11.40
2019-05-26T04:55:56.104Z,11.50
2019-05-26T04:58:23.859Z,11.50
2019-05-26T05:00:51.658Z,11.50
2019-05-26T05:03:19.412Z,11.60
2019-05-26T05:05:47.383Z,11.60
2019-05-26T05:08:17.470Z,11.80
2019-05-26T05:10:45.274Z,11.90
2019-05-26T05:13:13.146Z,12.00
2019-05-26T05:15:40.929Z,12.20
2019-05-26T05:18:08.729Z,12.40
2019-05-26T05:20:36.590Z,12.50
2019-05-26T05:23:05.491Z,12.70
2019-05-26T05:25:33.308Z,12.80
2019-05-26T05:28:01.026Z,12.90
2019-05-26T05:30:28.799Z,13.10
2019-05-26T05:32:56.665Z,13.20
2019-05-26T05:35:24.443Z,13.40
2019-05-26T05:37:52.275Z,13.70
2019-05-26T05:40:19.997Z,14.10
2019-05-26T05:42:47.771Z,15.60
2019-05-26T05:45:15.573Z,17.70
2019-05-26T05:47:44.560Z,19.70
2019-05-26T05:50:14.061Z,21.40
2019-05-26T05:52:41.937Z,22.00
2019-05-26T05:55:10.341Z,23.00
2019-05-26T05:57:38.085Z,23.60
2019-05-26T06:00:07.535Z,24.10
2019-05-26T06:02:35.459Z,24.30
2019-05-26T06:05:04.011Z,24.90
2019-05-26T06:07:31.920Z,25.10
2019-05-26T06:09:59.682Z,25.30
2019-05-26T06:12:27.534Z,25.30
2019-05-26T06:14:55.299Z,25.10
2019-05-26T06:17:23.148Z,25.40
2019-05-26T06:19:50.880Z,26.10
2019-05-26T06:22:18.648Z,26.30
2019-05-26T06:24:46.381Z,26.70
2019-05-26T06:27:14.311Z,26.60
2019-05-26T06:29:57.633Z,27.40
2019-05-26T06:32:11.919Z,28.10
2019-05-26T06:34:39.804Z,27.80
2019-05-26T06:37:07.512Z,28.20
2019-05-26T06:39:35.377Z,29.00
2019-05-26T06:42:03.187Z,29.10
2019-05-26T06:44:31.013Z,29.30
2019-05-26T06:46:59.185Z,29.40
2019-05-26T06:49:27.051Z,29.80
2019-05-26T06:51:54.870Z,30.10
2019-05-26T06:54:22.786Z,30.60
2019-05-26T06:56:50.519Z,30.80
2019-05-26T06:59:18.347Z,31.40
2019-05-26T07:01:46.111Z,31.10
2019-05-26T07:04:14.139Z,30.80
2019-05-26T07:06:41.881Z,31.20
2019-05-26T07:09:09.693Z,31.10
2019-05-26T07:11:50.526Z,31.50
2019-05-26T07:14:07.160Z,30.40
2019-05-26T07:16:38.497Z,30.60
2019-05-26T07:19:04.614Z,31.10
2019-05-26T07:21:32.395Z,31.80
2019-05-26T07:24:00.264Z,32.00
2019-05-26T07:26:28.028Z,32.40
2019-05-26T07:28:55.804Z,32.70
2019-05-26T07:31:23.563Z,32.80
2019-05-26T07:33:51.624Z,33.00
2019-05-26T07:36:19.432Z,33.30
2019-05-26T07:38:47.253Z,33.70
2019-05-26T07:41:15.009Z,33.00
2019-05-26T07:43:43.015Z,32.60
2019-05-26T07:46:10.868Z,33.00
2019-05-26T07:48:38.775Z,33.70
2019-05-26T07:51:06.552Z,33.50
2019-05-26T07:53:34.293Z,32.80
2019-05-26T07:56:02.091Z,33.00
2019-05-26T07:58:29.911Z,32.40
2019-05-26T08:00:57.733Z,32.20
2019-05-26T08:03:27.449Z,32.40
2019-05-26T08:05:55.181Z,33.00
2019-05-26T08:08:22.922Z,33.40
2019-05-26T08:10:51.008Z,34.40
2019-05-26T08:13:18.788Z,34.70
2019-05-26T08:15:46.595Z,35.30
2019-05-26T08:18:14.441Z,34.20
2019-05-26T08:20:43.048Z,34.20
2019-05-26T08:23:10.891Z,34.00
2019-05-26T08:25:38.660Z,34.70
2019-05-26T08:28:06.385Z,34.90
2019-05-26T08:30:34.171Z,34.20
2019-05-26T08:33:02.010Z,34.50
2019-05-26T08:35:29.788Z,34.50
2019-05-26T08:37:57.630Z,35.40
2019-05-26T08:40:25.425Z,35.00
2019-05-26T08:42:53.287Z,35.00
2019-05-26T08:45:23.112Z,35.00
2019-05-26T08:47:51.248Z,35.30
2019-05-26T08:50:19.110Z,35.10
2019-05-26T08:52:47.168Z,33.60
2019-05-26T08:55:15.141Z,32.20
2019-05-26T08:57:43.023Z,33.00
2019-05-26T09:00:11.585Z,32.50
2019-05-26T09:02:39.488Z,31.80
2019-05-26T09:05:08.386Z,31.60
2019-05-26T09:07:36.228Z,30.20
2019-05-26T09:10:06.024Z,29.60
2019-05-26T09:12:33.950Z,28.00
2019-05-26T09:15:01.830Z,28.00
2019-05-26T09:17:29.567Z,28.40
2019-05-26T09:19:57.402Z,28.20
2019-05-26T09:22:25.188Z,29.00
2019-05-26T09:24:52.936Z,29.00
2019-05-26T09:27:20.766Z,28.60
2019-05-26T09:29:48.568Z,27.90
2019-05-26T09:32:16.391Z,27.20
2019-05-26T09:34:44.160Z,26.80
2019-05-26T09:37:11.983Z,26.60
2019-05-26T09:39:39.816Z,26.00
2019-05-26T09:42:07.617Z,25.50
2019-05-26T09:44:35.400Z,25.10
2019-05-26T09:47:03.186Z,25.30
2019-05-26T09:49:31.001Z,25.70
2019-05-26T09:51:58.802Z,26.70
2019-05-26T09:54:26.780Z,28.80
2019-05-26T09:56:54.656Z,30.20
2019-05-26T09:59:22.543Z,31.30
2019-05-26T10:01:50.382Z,31.40
2019-05-26T10:04:18.422Z,31.40
2019-05-26T10:06:46.224Z,32.40
2019-05-26T10:09:14.233Z,32.80
2019-05-26T10:11:42.085Z,31.60
2019-05-26T10:14:10.021Z,31.90
2019-05-26T10:16:37.809Z,32.40
2019-05-26T10:19:05.605Z,33.10
2019-05-26T10:21:33.463Z,33.30
2019-05-26T10:24:03.486Z,32.90
2019-05-26T10:26:31.300Z,32.00
2019-05-26T10:29:00.659Z,32.90
2019-05-26T10:31:29.951Z,32.70
2019-05-26T10:33:57.900Z,33.10
2019-05-26T10:36:25.676Z,32.90
2019-05-26T10:38:53.546Z,33.20
2019-05-26T10:41:21.302Z,33.60
2019-05-26T10:43:49.970Z,33.60
2019-05-26T10:46:18.328Z,33.00
2019-05-26T10:48:46.807Z,33.30
2019-05-26T10:51:15.266Z,33.40
2019-05-26T10:53:43.951Z,33.80
2019-05-26T10:56:12.403Z,32.10
2019-05-26T10:58:40.763Z,33.00
2019-05-26T11:01:11.128Z,34.10
2019-05-26T11:03:40.276Z,33.90
2019-05-26T11:06:08.715Z,33.70
2019-05-26T11:08:37.114Z,33.40
2019-05-26T11:11:05.653Z,33.80
2019-05-26T11:14:02.531Z,32.40
2019-05-26T11:16:20.691Z,32.10
2019-05-26T11:18:48.524Z,30.70
2019-05-26T11:21:18.840Z,29.80
2019-05-26T11:23:46.834Z,30.70
2019-05-26T11:26:14.560Z,31.30
2019-05-26T11:29:02.795Z,31.70
2019-05-26T11:31:30.661Z,32.10
2019-05-26T11:33:58.608Z,33.10
2019-05-26T11:36:26.355Z,33.10
2019-05-26T11:38:54.207Z,34.20
2019-05-26T11:41:21.978Z,33.70
2019-05-26T11:43:50.372Z,34.00
2019-05-26T11:46:18.221Z,32.30
2019-05-26T11:48:46.246Z,31.40
2019-05-26T11:51:15.718Z,31.60
2019-05-26T11:53:45.987Z,31.60
2019-05-26T11:56:14.427Z,32.50
2019-05-26T11:58:42.882Z,33.40
2019-05-26T12:01:11.037Z,32.60
2019-05-26T12:03:39.142Z,33.50
2019-05-26T12:06:06.906Z,33.40
2019-05-26T12:08:34.775Z,33.90
2019-05-26T12:11:02.536Z,34.10
2019-05-26T12:13:30.281Z,34.30
2019-05-26T12:15:58.130Z,34.00
2019-05-26T12:18:26.047Z,33.70
2019-05-26T12:20:53.810Z,33.20
2019-05-26T12:23:21.655Z,32.70
2019-05-26T12:25:49.430Z,31.90
2019-05-26T12:28:17.232Z,31.00
2019-05-26T12:30:44.989Z,31.20
2019-05-26T12:33:12.777Z,31.70
2019-05-26T12:35:46.579Z,31.60
2019-05-26T12:38:14.857Z,31.90
2019-05-26T12:40:43.230Z,32.30
2019-05-26T12:43:11.101Z,32.80
2019-05-26T12:45:39.065Z,32.20
2019-05-26T12:48:07.026Z,31.20
2019-05-26T12:50:34.943Z,31.10
2019-05-26T12:53:03.279Z,31.70
2019-05-26T12:55:31.146Z,32.30
2019-05-26T12:57:58.914Z,32.00
2019-05-26T13:00:26.721Z,32.80
2019-05-26T13:02:54.687Z,32.40
2019-05-26T13:05:22.622Z,32.70
2019-05-26T13:07:50.440Z,33.00
2019-05-26T13:10:18.444Z,31.20
2019-05-26T13:12:46.273Z,31.00
2019-05-26T13:15:14.722Z,30.60
2019-05-26T13:17:42.551Z,30.00
2019-05-26T13:20:12.553Z,30.60
2019-05-26T13:22:41.035Z,30.20
2019-05-26T13:25:28.410Z,30.40
2019-05-26T13:27:56.389Z,30.80
2019-05-26T13:30:24.993Z,29.80
2019-05-26T13:32:52.885Z,30.00
2019-05-26T13:35:21.267Z,30.60
2019-05-26T13:37:49.151Z,31.30
2019-05-26T13:40:17.083Z,30.60
2019-05-26T13:42:44.934Z,30.60
2019-05-26T13:45:22.580Z,30.90
2019-05-26T13:47:43.027Z,30.90
2019-05-26T13:50:11.529Z,30.70
2019-05-26T13:52:39.319Z,30.00
2019-05-26T13:55:07.600Z,30.00
2019-05-26T13:57:35.442Z,29.90
2019-05-26T14:00:04.599Z,30.20
2019-05-26T14:02:33.784Z,30.50
2019-05-26T14:05:01.619Z,30.80
2019-05-26T14:07:29.643Z,30.60
2019-05-26T14:09:57.489Z,30.70
2019-05-26T14:12:25.463Z,30.80
2019-05-26T14:14:54.475Z,31.40
2019-05-26T14:17:23.599Z,31.30
2019-05-26T14:19:51.581Z,31.10
2019-05-26T14:22:19.376Z,30.70
2019-05-26T14:24:53.894Z,29.70
2019-05-26T14:27:17.006Z,29.20
2019-05-26T14:29:44.813Z,29.40
2019-05-26T14:32:12.656Z,29.40
2019-05-26T14:34:40.447Z,29.70
2019-05-26T14:37:08.291Z,30.00
2019-05-26T14:39:36.109Z,30.20
2019-05-26T14:42:03.959Z,30.10
2019-05-26T14:44:31.975Z,30.50
2019-05-26T14:46:59.743Z,30.40
2019-05-26T14:49:27.652Z,29.70
2019-05-26T14:51:55.405Z,29.60
2019-05-26T14:54:23.426Z,29.20
2019-05-26T14:56:51.251Z,29.20
2019-05-26T14:59:19.056Z,29.20
2019-05-26T15:01:46.829Z,28.90
2019-05-26T15:04:15.193Z,28.40
2019-05-26T15:06:43.384Z,28.10
2019-05-26T15:09:24.329Z,27.80
2019-05-26T15:11:40.883Z,27.40
2019-05-26T15:14:08.887Z,26.90
2019-05-26T15:16:36.699Z,26.70
2019-05-26T15:19:05.124Z,26.30
2019-05-26T15:21:33.279Z,26.40
2019-05-26T15:24:01.541Z,26.30
2019-05-26T15:26:29.398Z,26.20
2019-05-26T15:28:57.195Z,26.10
2019-05-26T15:31:24.963Z,26.10
2019-05-26T15:33:52.743Z,25.90
2019-05-26T15:36:20.541Z,25.80
2019-05-26T15:38:48.334Z,25.50
2019-05-26T15:41:16.057Z,25.20
2019-05-26T15:43:43.817Z,25.30
2019-05-26T15:46:24.281Z,25.40
2019-05-26T15:48:41.316Z,25.10
2019-05-26T15:51:09.100Z,25.10
2019-05-26T15:53:36.902Z,25.00
2019-05-26T15:56:04.671Z,24.90
2019-05-26T15:58:32.462Z,24.70
2019-05-26T16:01:00.316Z,24.60
2019-05-26T16:03:33.352Z,24.60
2019-05-26T16:06:01.152Z,24.60
2019-05-26T16:08:28.929Z,24.80
2019-05-26T16:10:56.714Z,24.90
2019-05-26T16:13:24.707Z,24.80
2019-05-26T16:15:52.488Z,24.50
2019-05-26T16:18:20.278Z,24.30
2019-05-26T16:20:48.009Z,24.20
2019-05-26T16:23:35.260Z,24.20
2019-05-26T16:26:03.082Z,23.90
2019-05-26T16:28:30.816Z,24.10
2019-05-26T16:30:58.606Z,24.00
2019-05-26T16:33:26.378Z,23.90
2019-05-26T16:35:55.617Z,24.20
2019-05-26T16:38:23.859Z,24.00
2019-05-26T16:40:51.632Z,23.80
2019-05-26T16:43:19.367Z,23.80
2019-05-26T16:45:55.666Z,23.70
2019-05-26T16:48:16.850Z,23.50
2019-05-26T16:50:44.658Z,23.20
2019-05-26T16:53:12.452Z,22.90
2019-05-26T16:55:40.211Z,22.70
2019-05-26T16:58:08.000Z,22.80
2019-05-26T17:00:35.791Z,22.80
2019-05-26T17:03:04.014Z,22.70
2019-05-26T17:05:31.841Z,22.70
2019-05-26T17:07:59.628Z,22.70
2019-05-26T17:10:27.786Z,22.60
2019-05-26T17:12:55.961Z,22.50
2019-05-26T17:15:23.710Z,22.40
2019-05-26T17:17:51.433Z,22.20
2019-05-26T17:20:19.763Z,22.10
2019-05-26T17:22:52.583Z,22.20
2019-05-26T17:25:20.391Z,22.20
2019-05-26T17:27:48.198Z,22.20
2019-05-26T17:30:17.452Z,22.30
2019-05-26T17:32:45.186Z,22.30
2019-05-26T17:35:12.973Z,22.30
2019-05-26T17:37:40.735Z,22.30
2019-05-26T17:40:10.612Z,22.30
2019-05-26T17:42:38.874Z,22.10
2019-05-26T17:45:07.201Z,22.10
2019-05-26T17:47:34.979Z,21.90
2019-05-26T17:50:03.606Z,21.90
2019-05-26T17:52:31.356Z,21.90
2019-05-26T17:54:59.158Z,21.90
2019-05-26T17:57:26.945Z,21.80
2019-05-26T17:59:54.852Z,21.70
2019-05-26T18:02:22.604Z,21.60
2019-05-26T18:04:50.399Z,21.50
2019-05-26T18:07:21.039Z,21.50
2019-05-26T18:09:48.854Z,21.40
2019-05-26T18:12:16.630Z,21.40
2019-05-26T18:14:44.527Z,21.30
2019-05-26T18:17:12.574Z,21.20
2019-05-26T18:19:40.300Z,21.10
2019-05-26T18:22:08.295Z,21.00
2019-05-26T18:24:38.303Z,20.90
2019-05-26T18:27:06.561Z,20.70
2019-05-26T18:29:34.507Z,20.60
2019-05-26T18:32:03.331Z,20.50
2019-05-26T18:34:31.503Z,20.40
2019-05-26T18:36:59.396Z,20.30
2019-05-26T18:39:27.187Z,20.20
2019-05-26T18:41:55.080Z,20.20
2019-05-26T18:44:23.215Z,20.10
2019-05-26T18:46:53.514Z,20.00
2019-05-26T18:49:21.905Z,19.90
2019-05-26T18:51:49.611Z,19.70
2019-05-26T18:54:17.453Z,19.60
2019-05-26T18:56:45.965Z,19.50
2019-05-26T18:59:14.024Z,19.40
2019-05-26T19:01:41.992Z,19.30
2019-05-26T19:04:09.911Z,19.20
2019-05-26T19:06:37.924Z,19.00
2019-05-26T19:09:08.095Z,19.00
2019-05-26T19:11:35.926Z,18.80
2019-05-26T19:14:04.342Z,18.70
2019-05-26T19:16:32.190Z,18.70
2019-05-26T19:19:00.170Z,18.50
2019-05-26T19:21:27.939Z,18.50
2019-05-26T19:23:56.238Z,18.40
2019-05-26T19:26:24.145Z,18.30
2019-05-26T19:28:52.211Z,18.30
2019-05-26T19:31:19.999Z,18.20
2019-05-26T19:33:49.469Z,18.10
2019-05-26T19:36:17.401Z,18.00
2019-05-26T19:38:45.319Z,17.90
2019-05-26T19:41:13.212Z,17.80
2019-05-26T19:44:01.855Z,17.70
2019-05-26T19:46:29.739Z,17.60
2019-05-26T19:48:57.681Z,17.50
2019-05-26T19:51:25.470Z,17.40
2019-05-26T19:53:58.454Z,17.30
2019-05-26T19:56:26.814Z,17.20
2019-05-26T19:58:54.658Z,17.10
2019-05-26T20:01:22.570Z,17.10
2019-05-26T20:03:50.350Z,17.00
2019-05-26T20:06:18.721Z,17.00
2019-05-26T20:08:47.077Z,16.90
2019-05-26T20:11:15.427Z,16.80
2019-05-26T20:13:43.649Z,16.80
2019-05-26T20:16:11.767Z,17.10
2019-05-26T20:18:40.067Z,16.50
2019-05-26T20:21:08.428Z,16.40
2019-05-26T20:23:36.286Z,16.30
2019-05-26T20:26:04.451Z,16.20
2019-05-26T20:28:32.695Z,16.20
2019-05-26T20:31:00.886Z,16.10
2019-05-26T20:33:29.165Z,16.00
2019-05-26T20:35:57.597Z,15.90
2019-05-26T20:38:25.636Z,15.90
2019-05-26T20:40:53.811Z,15.80
2019-05-26T20:43:25.040Z,15.70
2019-05-26T20:45:52.210Z,15.70
2019-05-26T20:48:20.051Z,15.60
2019-05-26T20:50:47.790Z,15.50
2019-05-26T20:53:15.522Z,15.50
2019-05-26T20:55:43.925Z,15.50
2019-05-26T20:58:11.684Z,15.40
2019-05-26T21:00:39.466Z,15.40
2019-05-26T21:03:07.268Z,15.20
2019-05-26T21:05:35.087Z,15.10
2019-05-26T21:08:02.923Z,15.10
2019-05-26T21:10:30.657Z,15.10
2019-05-26T21:12:58.454Z,15.00
2019-05-26T21:15:26.242Z,14.90
2019-05-26T21:17:53.999Z,14.80
2019-05-26T21:20:21.801Z,14.80
2019-05-26T21:22:49.788Z,14.60
2019-05-26T21:25:17.685Z,14.50
2019-05-26T21:27:45.444Z,14.40
2019-05-26T21:30:14.304Z,14.40
2019-05-26T21:32:42.653Z,14.30
2019-05-26T21:35:11.661Z,14.20
2019-05-26T21:37:39.436Z,14.10
2019-05-26T21:40:07.629Z,14.10
2019-05-26T21:42:35.421Z,14.10
2019-05-26T21:45:03.563Z,14.10
2019-05-26T21:47:31.361Z,14.00
2019-05-26T21:49:59.157Z,14.00
2019-05-26T21:52:26.918Z,14.00
2019-05-26T21:54:54.670Z,13.90
2019-05-26T21:57:22.443Z,13.90
2019-05-26T21:59:50.237Z,13.80
2019-05-26T22:02:17.933Z,13.80
2019-05-26T22:05:05.482Z,13.70
2019-05-26T22:07:33.297Z,13.70
2019-05-26T22:10:01.140Z,13.70
2019-05-26T22:12:28.944Z,13.60
2019-05-26T22:14:57.136Z,13.50
2019-05-26T22:17:24.871Z,13.50
2019-05-26T22:19:52.512Z,13.40
2019-05-26T22:22:21.122Z,13.50
2019-05-26T22:24:49.056Z,13.50
2019-05-26T22:27:16.848Z,13.50
2019-05-26T22:29:44.552Z,13.50
2019-05-26T22:32:12.368Z,13.50
2019-05-26T22:34:40.176Z,13.50
2019-05-26T22:37:07.985Z,13.40
2019-05-26T22:39:35.754Z,13.40
2019-05-26T22:42:03.522Z,13.40
2019-05-26T22:44:31.521Z,13.30
2019-05-26T22:46:59.311Z,13.30
2019-05-26T22:49:27.066Z,13.20
2019-05-26T22:51:54.880Z,13.20
2019-05-26T22:54:22.669Z,13.10
2019-05-26T22:56:50.464Z,13.10
2019-05-26T22:59:18.239Z,13.10
2019-05-26T23:01:46.265Z,13.10
2019-05-26T23:04:14.337Z,13.00
2019-05-26T23:06:42.121Z,13.00
2019-05-26T23:09:09.914Z,13.00
2019-05-26T23:11:37.744Z,13.00
2019-05-26T23:14:05.513Z,12.90
2019-05-26T23:16:33.402Z,12.90
2019-05-26T23:19:01.171Z,12.80
2019-05-26T23:21:28.942Z,12.90
2019-05-26T23:23:56.681Z,12.80
2019-05-26T23:26:24.566Z,12.80
2019-05-26T23:28:52.335Z,12.80
2019-05-26T23:31:20.134Z,12.70
2019-05-26T23:33:48.360Z,12.60
2019-05-26T23:36:16.105Z,12.50
2019-05-26T23:38:43.978Z,12.50
2019-05-26T23:41:11.742Z,12.50
2019-05-26T23:43:39.659Z,12.50
2019-05-26T23:46:07.443Z,12.50
2019-05-26T23:48:35.212Z,12.40
2019-05-26T23:51:03.002Z,12.40
2019-05-26T23:53:31.076Z,12.40
2019-05-26T23:55:58.848Z,12.40
2019-05-26T23:58:26.586Z,12.40
